sensor_id;sensor_type;location;lat;lon;timestamp;temperature;humidity
2957;DHT22;1488;51.548;7.222;2022-08-19T00:02:01;27.80;76.90
2957;DHT22;1488;51.548;7.222;2022-08-19T00:04:36;27.80;76.90
2957;DHT22;1488;51.548;7.222;2022-08-19T00:07:08;27.80;76.80
2957;DHT22;1488;51.548;7.222;2022-08-19T07:22:11;27.40;78.90
2957;DHT22;1488;51.548;7.222;2022-08-19T07:28:13;27.30;78.50
2957;DHT22;1488;51.548;7.222;2022-08-19T07:30:40;27.30;78.70
2957;DHT22;1488;51.548;7.222;2022-08-19T07:33:07;27.40;78.60
2957;DHT22;1488;51.548;7.222;2022-08-19T07:35:34;27.40;78.60
2957;DHT22;1488;51.548;7.222;2022-08-19T07:38:02;27.40;78.50
2957;DHT22;1488;51.548;7.222;2022-08-19T07:40:30;27.40;78.40
2957;DHT22;1488;51.548;7.222;2022-08-19T09:51:48;27.80;77.90
2957;DHT22;1488;51.548;7.222;2022-08-19T09:54:15;27.80;77.90
2957;DHT22;1488;51.548;7.222;2022-08-19T09:56:42;27.80;78.10
2957;DHT22;1488;51.548;7.222;2022-08-19T09:59:10;27.80;78.00
2957;DHT22;1488;51.548;7.222;2022-08-19T10:01:38;27.80;77.80
2957;DHT22;1488;51.548;7.222;2022-08-19T10:04:05;27.90;77.90
2957;DHT22;1488;51.548;7.222;2022-08-19T10:06:34;27.90;77.80
2957;DHT22;1488;51.548;7.222;2022-08-19T10:09:03;27.90;77.70
2957;DHT22;1488;51.548;7.222;2022-08-19T10:11:32;27.90;77.70
2957;DHT22;1488;51.548;7.222;2022-08-19T10:14:00;27.90;77.60
2957;DHT22;1488;51.548;7.222;2022-08-19T10:16:27;27.90;77.60
2957;DHT22;1488;51.548;7.222;2022-08-19T10:18:54;27.90;77.60
2957;DHT22;1488;51.548;7.222;2022-08-19T10:21:23;27.90;77.50
2957;DHT22;1488;51.548;7.222;2022-08-19T10:23:52;27.90;77.50
2957;DHT22;1488;51.548;7.222;2022-08-19T10:26:23;27.90;77.50
2957;DHT22;1488;51.548;7.222;2022-08-19T10:28:50;27.90;77.50
2957;DHT22;1488;51.548;7.222;2022-08-19T10:31:19;27.90;77.50
2957;DHT22;1488;51.548;7.222;2022-08-19T10:33:47;27.90;77.50
2957;DHT22;1488;51.548;7.222;2022-08-19T10:36:17;27.90;77.50
2957;DHT22;1488;51.548;7.222;2022-08-19T10:38:48;27.90;77.40
2957;DHT22;1488;51.548;7.222;2022-08-19T10:41:17;28.00;77.30
2957;DHT22;1488;51.548;7.222;2022-08-19T10:43:46;27.90;77.30
2957;DHT22;1488;51.548;7.222;2022-08-19T10:46:15;27.90;77.30
2957;DHT22;1488;51.548;7.222;2022-08-19T10:48:42;27.90;77.30
2957;DHT22;1488;51.548;7.222;2022-08-19T10:51:09;27.90;77.20
2957;DHT22;1488;51.548;7.222;2022-08-19T10:53:54;27.90;77.30
2957;DHT22;1488;51.548;7.222;2022-08-19T10:56:21;27.90;77.40
2957;DHT22;1488;51.548;7.222;2022-08-19T10:59:07;27.90;77.40
2957;DHT22;1488;51.548;7.222;2022-08-19T11:01:35;27.90;78.30
2957;DHT22;1488;51.548;7.222;2022-08-19T11:04:03;27.90;77.50
2957;DHT22;1488;51.548;7.222;2022-08-19T11:06:31;27.80;77.40
2957;DHT22;1488;51.548;7.222;2022-08-19T11:08:58;27.90;77.50
2957;DHT22;1488;51.548;7.222;2022-08-19T11:11:26;27.90;77.40
2957;DHT22;1488;51.548;7.222;2022-08-19T11:13:54;27.90;77.50
2957;DHT22;1488;51.548;7.222;2022-08-19T11:16:24;27.90;77.50
2957;DHT22;1488;51.548;7.222;2022-08-19T11:18:58;27.90;77.40
2957;DHT22;1488;51.548;7.222;2022-08-19T11:21:27;27.90;77.30
2957;DHT22;1488;51.548;7.222;2022-08-19T14:06:22;27.80;77.30
2957;DHT22;1488;51.548;7.222;2022-08-19T14:08:48;27.80;77.10
2957;DHT22;1488;51.548;7.222;2022-08-19T14:11:15;27.80;76.80
2957;DHT22;1488;51.548;7.222;2022-08-19T14:13:42;27.80;76.60
2957;DHT22;1488;51.548;7.222;2022-08-19T14:16:11;27.90;76.50
2957;DHT22;1488;51.548;7.222;2022-08-19T14:18:38;27.90;76.40
2957;DHT22;1488;51.548;7.222;2022-08-19T14:21:05;27.90;76.20
2957;DHT22;1488;51.548;7.222;2022-08-19T14:23:34;27.90;76.20
2957;DHT22;1488;51.548;7.222;2022-08-19T14:26:07;27.90;76.20
2957;DHT22;1488;51.548;7.222;2022-08-19T14:28:34;27.90;76.20
2957;DHT22;1488;51.548;7.222;2022-08-19T14:31:01;27.90;76.10
2957;DHT22;1488;51.548;7.222;2022-08-19T14:33:27;27.90;76.10
2957;DHT22;1488;51.548;7.222;2022-08-19T14:35:54;27.90;76.00
2957;DHT22;1488;51.548;7.222;2022-08-19T14:38:21;27.90;76.00
2957;DHT22;1488;51.548;7.222;2022-08-19T14:40:49;27.90;76.10
2957;DHT22;1488;51.548;7.222;2022-08-19T14:43:18;27.90;76.00
2957;DHT22;1488;51.548;7.222;2022-08-19T14:45:45;27.90;76.00
2957;DHT22;1488;51.548;7.222;2022-08-19T14:48:12;27.90;76.00
2957;DHT22;1488;51.548;7.222;2022-08-19T14:50:38;27.90;75.90
2957;DHT22;1488;51.548;7.222;2022-08-19T14:53:07;27.90;75.90
2957;DHT22;1488;51.548;7.222;2022-08-19T14:55:35;27.90;75.90
2957;DHT22;1488;51.548;7.222;2022-08-19T14:58:06;27.90;75.90
2957;DHT22;1488;51.548;7.222;2022-08-19T15:00:33;28.00;76.10
2957;DHT22;1488;51.548;7.222;2022-08-19T15:03:00;27.90;76.10
2957;DHT22;1488;51.548;7.222;2022-08-19T15:05:27;27.90;76.10
2957;DHT22;1488;51.548;7.222;2022-08-19T15:07:54;27.90;76.00
2957;DHT22;1488;51.548;7.222;2022-08-19T15:10:22;27.90;76.00
2957;DHT22;1488;51.548;7.222;2022-08-19T15:12:50;27.90;76.00
2957;DHT22;1488;51.548;7.222;2022-08-19T15:15:19;27.90;76.00
2957;DHT22;1488;51.548;7.222;2022-08-19T15:17:48;27.90;75.90
2957;DHT22;1488;51.548;7.222;2022-08-19T15:20:17;27.90;75.90
2957;DHT22;1488;51.548;7.222;2022-08-19T15:22:45;27.90;75.90
2957;DHT22;1488;51.548;7.222;2022-08-19T15:25:15;27.90;75.90
2957;DHT22;1488;51.548;7.222;2022-08-19T15:27:43;27.90;75.80
2957;DHT22;1488;51.548;7.222;2022-08-19T15:30:11;27.90;75.90
2957;DHT22;1488;51.548;7.222;2022-08-19T15:32:40;27.90;75.90
2957;DHT22;1488;51.548;7.222;2022-08-19T15:35:07;27.90;75.80
2957;DHT22;1488;51.548;7.222;2022-08-19T15:37:34;27.90;75.80
2957;DHT22;1488;51.548;7.222;2022-08-19T15:40:02;27.90;76.70
2957;DHT22;1488;51.548;7.222;2022-08-19T15:42:29;27.90;75.90
2957;DHT22;1488;51.548;7.222;2022-08-19T15:44:56;27.90;75.80
2957;DHT22;1488;51.548;7.222;2022-08-19T15:47:23;27.90;75.90
2957;DHT22;1488;51.548;7.222;2022-08-19T15:49:52;27.90;75.80
2957;DHT22;1488;51.548;7.222;2022-08-19T15:52:19;27.90;75.80
2957;DHT22;1488;51.548;7.222;2022-08-19T15:54:46;27.90;75.80
2957;DHT22;1488;51.548;7.222;2022-08-19T15:57:13;27.90;75.80
2957;DHT22;1488;51.548;7.222;2022-08-19T15:59:57;27.90;76.00
2957;DHT22;1488;51.548;7.222;2022-08-19T16:02:41;27.90;76.10
2957;DHT22;1488;51.548;7.222;2022-08-19T16:05:27;27.90;76.10
2957;DHT22;1488;51.548;7.222;2022-08-19T16:08:11;27.90;76.00
2957;DHT22;1488;51.548;7.222;2022-08-19T16:10:40;27.90;76.30
2957;DHT22;1488;51.548;7.222;2022-08-19T16:13:06;27.90;76.30
2957;DHT22;1488;51.548;7.222;2022-08-19T16:15:35;27.90;76.30
2957;DHT22;1488;51.548;7.222;2022-08-19T16:18:02;28.00;76.40
2957;DHT22;1488;51.548;7.222;2022-08-19T16:20:31;28.00;76.40
2957;DHT22;1488;51.548;7.222;2022-08-19T16:22:58;28.00;76.40
2957;DHT22;1488;51.548;7.222;2022-08-19T16:25:26;28.00;76.40
2957;DHT22;1488;51.548;7.222;2022-08-19T16:27:53;28.00;76.40
2957;DHT22;1488;51.548;7.222;2022-08-19T16:30:20;28.00;76.40
2957;DHT22;1488;51.548;7.222;2022-08-19T16:32:47;28.00;76.40
2957;DHT22;1488;51.548;7.222;2022-08-19T16:35:14;28.00;76.40
2957;DHT22;1488;51.548;7.222;2022-08-19T16:37:42;28.00;76.40
2957;DHT22;1488;51.548;7.222;2022-08-19T16:40:10;28.00;76.30
2957;DHT22;1488;51.548;7.222;2022-08-19T16:42:37;28.00;76.40
2957;DHT22;1488;51.548;7.222;2022-08-19T16:45:05;28.00;76.40
2957;DHT22;1488;51.548;7.222;2022-08-19T16:47:33;28.00;76.30
2957;DHT22;1488;51.548;7.222;2022-08-19T16:50:01;28.00;76.30
2957;DHT22;1488;51.548;7.222;2022-08-19T16:52:27;28.00;76.20
2957;DHT22;1488;51.548;7.222;2022-08-19T16:54:56;28.00;76.20
2957;DHT22;1488;51.548;7.222;2022-08-19T16:57:23;28.00;76.20
2957;DHT22;1488;51.548;7.222;2022-08-19T16:59:50;28.00;76.20
2957;DHT22;1488;51.548;7.222;2022-08-19T17:02:18;28.00;76.20
2957;DHT22;1488;51.548;7.222;2022-08-19T17:04:46;28.00;76.10
2957;DHT22;1488;51.548;7.222;2022-08-19T17:07:14;28.10;76.20
2957;DHT22;1488;51.548;7.222;2022-08-19T17:09:41;28.00;76.10
2957;DHT22;1488;51.548;7.222;2022-08-19T17:12:09;28.00;76.10
2957;DHT22;1488;51.548;7.222;2022-08-19T17:14:37;28.00;76.90
2957;DHT22;1488;51.548;7.222;2022-08-19T17:17:04;28.00;76.10
2957;DHT22;1488;51.548;7.222;2022-08-19T17:19:31;28.00;76.10
2957;DHT22;1488;51.548;7.222;2022-08-19T17:21:58;28.00;76.10
2957;DHT22;1488;51.548;7.222;2022-08-19T17:24:25;28.10;76.10
2957;DHT22;1488;51.548;7.222;2022-08-19T17:26:52;28.00;76.00
2957;DHT22;1488;51.548;7.222;2022-08-19T17:29:20;28.00;76.80
2957;DHT22;1488;51.548;7.222;2022-08-19T17:31:47;28.00;76.00
2957;DHT22;1488;51.548;7.222;2022-08-19T17:34:13;28.00;76.00
2957;DHT22;1488;51.548;7.222;2022-08-19T17:36:41;28.00;76.00
2957;DHT22;1488;51.548;7.222;2022-08-19T17:39:08;28.00;76.00
2957;DHT22;1488;51.548;7.222;2022-08-19T17:41:35;28.10;76.10
2957;DHT22;1488;51.548;7.222;2022-08-19T17:44:03;28.10;76.00
2957;DHT22;1488;51.548;7.222;2022-08-19T17:46:31;28.00;75.90
2957;DHT22;1488;51.548;7.222;2022-08-19T17:48:58;28.00;76.00
2957;DHT22;1488;51.548;7.222;2022-08-19T17:51:39;28.00;76.00
2957;DHT22;1488;51.548;7.222;2022-08-19T17:54:07;28.10;76.00
2957;DHT22;1488;51.548;7.222;2022-08-19T17:56:35;28.00;76.00
2957;DHT22;1488;51.548;7.222;2022-08-19T17:59:02;28.00;75.80
2957;DHT22;1488;51.548;7.222;2022-08-19T18:01:31;28.00;75.80
2957;DHT22;1488;51.548;7.222;2022-08-19T18:03:58;28.00;75.80
2957;DHT22;1488;51.548;7.222;2022-08-19T18:06:26;28.00;75.80
2957;DHT22;1488;51.548;7.222;2022-08-19T18:08:53;28.10;76.00
2957;DHT22;1488;51.548;7.222;2022-08-19T18:11:21;28.00;75.80
2957;DHT22;1488;51.548;7.222;2022-08-19T18:13:48;28.00;75.90
2957;DHT22;1488;51.548;7.222;2022-08-19T18:16:15;28.10;75.90
2957;DHT22;1488;51.548;7.222;2022-08-19T18:18:44;28.00;75.90
2957;DHT22;1488;51.548;7.222;2022-08-19T18:21:11;28.00;75.80
2957;DHT22;1488;51.548;7.222;2022-08-19T18:23:38;28.00;75.80
2957;DHT22;1488;51.548;7.222;2022-08-19T18:26:06;28.00;75.80
2957;DHT22;1488;51.548;7.222;2022-08-19T18:28:33;28.00;75.80
2957;DHT22;1488;51.548;7.222;2022-08-19T18:31:00;28.00;75.70
2957;DHT22;1488;51.548;7.222;2022-08-19T18:33:29;28.00;75.70
2957;DHT22;1488;51.548;7.222;2022-08-19T18:35:57;28.00;75.70
2957;DHT22;1488;51.548;7.222;2022-08-19T18:38:24;28.10;75.70
2957;DHT22;1488;51.548;7.222;2022-08-19T18:41:09;28.00;75.50
2957;DHT22;1488;51.548;7.222;2022-08-19T18:43:53;28.00;75.50
2957;DHT22;1488;51.548;7.222;2022-08-19T18:46:38;28.00;75.40
2957;DHT22;1488;51.548;7.222;2022-08-19T18:49:24;28.00;75.40
2957;DHT22;1488;51.548;7.222;2022-08-19T18:51:53;28.00;75.40
2957;DHT22;1488;51.548;7.222;2022-08-19T18:54:22;28.00;75.20
2957;DHT22;1488;51.548;7.222;2022-08-19T18:56:50;28.00;75.20
2957;DHT22;1488;51.548;7.222;2022-08-19T18:59:20;28.00;75.10
2957;DHT22;1488;51.548;7.222;2022-08-19T19:01:48;28.00;75.20
2957;DHT22;1488;51.548;7.222;2022-08-19T19:04:18;28.00;75.10
2957;DHT22;1488;51.548;7.222;2022-08-19T19:06:46;28.00;75.10
2957;DHT22;1488;51.548;7.222;2022-08-19T19:09:16;28.00;75.10
2957;DHT22;1488;51.548;7.222;2022-08-19T19:11:47;28.00;75.10
2957;DHT22;1488;51.548;7.222;2022-08-19T19:14:18;28.00;76.00
2957;DHT22;1488;51.548;7.222;2022-08-19T19:16:47;28.00;75.20
2957;DHT22;1488;51.548;7.222;2022-08-19T19:19:18;27.90;75.20
